Terminal Aerodrome Forecast
Issued by NWS Twin Cities, MN

Home | Current Version | Previous Version | Graphics & Text | Print | Product List | Glossary On
Versions: 1 2 3 4 5 6 7 8 9 10 11 12 13 14 15 16 17 18 19 20 21 22 23 24 25 26
000
FTUS43 KMPX 241400 AAA
TAFMSP
TAF AMD
KMSP 241455Z 2415/2518 10012KT 5SM -RA BR BKN009 OVC012
      TEMPO 2415/2417 2SM RA BR SCT009 OVC012
     FM241700 09011KT 5SM -RA BR SCT009 OVC012
     FM242100 33006KT 6SM -RA BR SCT012 OVC020
     FM250200 29007KT P6SM SCT020 BKN100
     FM250500 27005KT P6SM SCT250
     FM251500 28009KT P6SM SKC=

USA.gov is the U.S. government's official web portal to all federal, state and local government web resources and services.